Time;durP1;ratioP1;P1;durP2;ratioP2;P2;SDS_P1;SDS_P2;PMS_P1;PMS_P2;Temp;Humidity;BMP_temperature;BMP_pressure;BME280_temperature;BME280_humidity;BME280_pressure;Samples;Min_cycle;Max_cycle;Signal;HPM_P1;HPM_P2
2020/12/28 00:00:47;;;;;;;1.47;0.80;;;;;;;7.88;74.18;93098.38;5054791;28;20191;-56
2020/12/28 00:03:12;;;;;;;2.30;1.23;;;;;;;7.59;76.12;93090.00;5045521;28;20173;-56
2020/12/28 00:05:38;;;;;;;1.30;1.20;;;;;;;7.95;74.64;93082.34;5035347;28;20206;-57
2020/12/28 00:08:03;;;;;;;1.00;0.80;;;;;;;8.09;74.42;93083.09;5051266;28;20321;-61
2020/12/28 00:10:28;;;;;;;1.13;0.83;;;;;;;8.11;73.55;93087.00;5054538;28;20554;-56
2020/12/28 00:12:54;;;;;;;1.10;1.00;;;;;;;8.24;73.18;93088.06;5055413;28;20259;-61
2020/12/28 00:15:28;;;;;;;0.83;0.83;;;;;;;8.30;72.71;93084.28;5055001;28;20286;-56
2020/12/28 00:17:55;;;;;;;1.00;1.00;;;;;;;8.26;72.75;93086.69;5054751;28;20177;-61
2020/12/28 00:20:23;;;;;;;1.13;1.03;;;;;;;8.26;72.69;93078.84;5072245;28;20433;-57
2020/12/28 00:22:49;;;;;;;0.60;0.60;;;;;;;7.90;74.41;93071.97;5074988;28;20423;-61
2020/12/28 00:25:16;;;;;;;1.30;1.00;;;;;;;8.02;73.65;93072.25;5064004;28;20414;-57
2020/12/28 00:27:42;;;;;;;0.63;0.63;;;;;;;7.59;75.60;93079.56;5054476;28;20529;-61
2020/12/28 00:30:07;;;;;;;0.90;0.90;;;;;;;7.47;77.15;93070.66;5053700;28;20884;-61
2020/12/28 00:32:36;;;;;;;0.80;0.80;;;;;;;7.49;76.34;93073.75;5054722;28;20182;-61
2020/12/28 00:35:04;;;;;;;1.10;0.90;;;;;;;7.33;76.52;93068.03;5054116;28;20204;-58
2020/12/28 00:37:29;;;;;;;0.70;0.67;;;;;;;7.01;78.55;93066.16;5052450;28;20415;-61
2020/12/28 00:39:55;;;;;;;1.00;0.93;;;;;;;7.43;76.82;93054.03;5053967;28;20827;-57
2020/12/28 00:42:20;;;;;;;0.90;0.90;;;;;;;7.28;78.04;93068.88;5054670;28;20277;-61
2020/12/28 00:44:46;;;;;;;1.17;0.80;;;;;;;7.44;76.95;93060.78;5054816;28;20627;-58
2020/12/28 00:47:11;;;;;;;0.50;0.50;;;;;;;7.28;77.87;93053.19;5054047;28;20177;-56
2020/12/28 00:49:37;;;;;;;1.60;0.87;;;;;;;6.95;80.16;93071.75;5053974;28;20217;-60
2020/12/28 00:52:02;;;;;;;0.60;0.60;;;;;;;6.93;80.43;93066.84;5054015;28;20445;-61
2020/12/28 00:54:28;;;;;;;0.77;0.67;;;;;;;6.66;81.07;93077.16;5054371;28;20241;-61
2020/12/28 00:56:53;;;;;;;0.60;0.47;;;;;;;6.53;83.65;93059.59;5053975;28;20259;-57
2020/12/28 00:59:18;;;;;;;0.63;0.60;;;;;;;6.72;82.97;93052.53;5054309;28;20192;-61
2020/12/28 01:01:44;;;;;;;0.60;0.60;;;;;;;6.60;82.59;93057.41;5054017;28;20173;-57
2020/12/28 01:04:09;;;;;;;0.73;0.73;;;;;;;6.47;83.70;93046.91;5053894;28;20722;-60
2020/12/28 01:06:35;;;;;;;0.90;0.90;;;;;;;6.60;82.95;93051.41;5053290;28;20176;-57
2020/12/28 01:09:03;;;;;;;0.70;0.70;;;;;;;6.72;82.30;93044.69;5053317;28;20175;-57
2020/12/28 01:11:29;;;;;;;0.60;0.60;;;;;;;6.49;82.77;93039.56;5054345;28;20169;-61
2020/12/28 01:13:54;;;;;;;0.93;0.70;;;;;;;6.70;82.97;93039.00;5054149;28;20535;-57
2020/12/28 01:16:21;;;;;;;0.77;0.77;;;;;;;6.67;82.76;93046.59;5054077;28;20573;-58
2020/12/28 01:18:46;;;;;;;0.70;0.70;;;;;;;6.59;82.52;93050.66;5054243;28;20263;-58
2020/12/28 01:21:21;;;;;;;1.27;1.00;;;;;;;6.47;82.37;93047.66;5054647;28;20529;-57
2020/12/28 01:23:46;;;;;;;2.00;1.17;;;;;;;6.55;82.57;93052.25;5053832;28;20267;-57
2020/12/28 01:26:14;;;;;;;1.40;0.70;;;;;;;6.59;82.45;93048.03;5053516;28;20513;-61
2020/12/28 01:28:39;;;;;;;1.20;1.10;;;;;;;6.40;83.32;93054.28;5053658;28;20210;-61
2020/12/28 01:31:04;;;;;;;0.90;0.90;;;;;;;6.50;82.69;93059.38;5053782;28;20470;-57
2020/12/28 01:33:30;;;;;;;0.93;0.93;;;;;;;6.53;83.08;93064.03;5053938;28;20199;-58
2020/12/28 01:35:55;;;;;;;0.70;0.70;;;;;;;6.76;82.87;93066.56;5054434;28;20180;-58
2020/12/28 01:38:20;;;;;;;0.87;0.83;;;;;;;6.92;81.17;93075.69;5052645;28;20175;-57
2020/12/28 01:40:46;;;;;;;1.10;1.00;;;;;;;6.81;82.02;93068.31;5053636;28;20206;-57
2020/12/28 01:43:12;;;;;;;0.80;0.70;;;;;;;6.78;82.08;93071.47;5054023;28;20169;-61
2020/12/28 01:45:38;;;;;;;0.80;0.80;;;;;;;6.75;82.48;93067.63;5053816;28;20224;-57
2020/12/28 01:48:03;;;;;;;1.00;1.00;;;;;;;6.72;82.73;93062.94;5051498;28;20423;-61
2020/12/28 01:50:28;;;;;;;0.83;0.83;;;;;;;6.81;83.67;93065.72;5053508;28;20196;-61
2020/12/28 01:52:54;;;;;;;0.80;0.80;;;;;;;6.65;83.48;93067.75;5053281;28;20212;-56
2020/12/28 01:55:20;;;;;;;0.90;0.90;;;;;;;6.88;83.34;93064.31;5052974;28;20201;-61
2020/12/28 01:57:45;;;;;;;1.00;0.90;;;;;;;7.20;81.48;93051.25;5053117;28;20698;-57
2020/12/28 02:00:10;;;;;;;0.93;0.80;;;;;;;7.25;81.89;93058.22;5053368;28;20592;-61
2020/12/28 02:02:36;;;;;;;1.00;1.00;;;;;;;6.68;83.87;93064.59;5053092;28;20191;-58
2020/12/28 02:05:02;;;;;;;0.93;0.87;;;;;;;6.72;85.09;93054.38;5053343;28;20692;-57
2020/12/28 02:07:33;;;;;;;1.00;1.00;;;;;;;6.68;84.46;93069.03;5052782;28;20222;-61
2020/12/28 02:10:05;;;;;;;0.97;0.97;;;;;;;6.48;85.76;93064.09;5052990;28;20443;-61
2020/12/28 02:12:30;;;;;;;0.80;0.80;;;;;;;6.33;87.13;93053.84;5053662;28;20403;-61
2020/12/28 02:14:55;;;;;;;1.00;1.00;;;;;;;6.46;87.54;93056.56;5053290;28;20497;-57
2020/12/28 02:17:21;;;;;;;0.93;0.93;;;;;;;6.32;87.78;93060.16;5052846;28;20656;-58
2020/12/28 02:19:46;;;;;;;1.00;1.00;;;;;;;6.14;89.16;93064.28;5051840;28;20658;-61
2020/12/28 02:22:11;;;;;;;1.37;1.27;;;;;;;6.15;89.45;93053.56;5052907;28;20574;-61
2020/12/28 02:24:37;;;;;;;1.90;1.10;;;;;;;6.20;90.14;93042.28;5052885;28;20176;-61
2020/12/28 02:27:02;;;;;;;1.90;1.27;;;;;;;5.99;90.81;93043.63;5052988;28;20172;-61
2020/12/28 02:29:27;;;;;;;1.50;1.40;;;;;;;6.24;90.84;93035.47;5053075;28;20264;-61
2020/12/28 02:31:53;;;;;;;1.40;1.30;;;;;;;6.10;90.87;93034.63;5052983;28;20172;-61
2020/12/28 02:34:18;;;;;;;1.50;1.40;;;;;;;6.07;90.63;93040.38;5053149;28;20207;-61
2020/12/28 02:36:44;;;;;;;1.10;1.10;;;;;;;6.10;90.58;93035.41;5052461;28;20218;-57
2020/12/28 02:39:09;;;;;;;1.43;1.33;;;;;;;5.90;91.86;93030.44;5052078;28;20709;-57
2020/12/28 02:41:35;;;;;;;1.43;1.10;;;;;;;6.11;91.83;93025.72;5052980;28;20194;-61
2020/12/28 02:44:00;;;;;;;1.30;1.20;;;;;;;6.20;90.16;93016.22;5052732;28;20179;-61
2020/12/28 02:46:25;;;;;;;1.07;1.07;;;;;;;6.12;91.45;93015.03;5052698;28;20260;-58
2020/12/28 02:48:51;;;;;;;1.00;1.00;;;;;;;6.12;91.74;93006.47;5052993;28;20501;-57
2020/12/28 02:51:16;;;;;;;1.07;1.00;;;;;;;6.25;90.71;93009.13;5056608;28;20175;-57
2020/12/28 02:53:42;;;;;;;1.20;1.10;;;;;;;6.09;91.39;93009.59;5056580;28;20198;-62
2020/12/28 02:56:07;;;;;;;0.83;0.83;;;;;;;6.10;91.68;93013.78;5056611;28;20183;-56
2020/12/28 02:58:32;;;;;;;0.93;0.93;;;;;;;6.17;90.53;93009.00;5056528;28;20203;-57
2020/12/28 03:00:58;;;;;;;1.10;0.93;;;;;;;6.17;91.42;93016.81;5056541;28;20192;-61
2020/12/28 03:03:23;;;;;;;1.10;1.10;;;;;;;6.35;90.59;93020.47;5056906;28;20199;-57
2020/12/28 03:05:49;;;;;;;1.10;1.10;;;;;;;6.36;89.77;93009.75;5056360;28;20185;-61
2020/12/28 03:08:14;;;;;;;1.00;1.00;;;;;;;6.34;90.26;93011.13;5055933;28;20183;-57
2020/12/28 03:10:39;;;;;;;1.70;1.10;;;;;;;6.53;90.06;92999.59;5056398;28;20200;-62
2020/12/28 03:13:05;;;;;;;1.00;0.90;;;;;;;6.77;88.48;92989.06;5056559;28;20202;-62
2020/12/28 03:15:30;;;;;;;1.00;1.00;;;;;;;6.45;88.78;92986.44;5056394;28;20200;-61
2020/12/28 03:17:55;;;;;;;1.17;1.10;;;;;;;6.39;90.17;92990.19;5056099;28;20202;-57
2020/12/28 03:20:21;;;;;;;0.93;0.90;;;;;;;6.35;89.84;93000.41;5056347;28;20188;-61
2020/12/28 03:22:46;;;;;;;1.53;1.10;;;;;;;6.22;91.37;92999.28;5055794;28;20627;-61
2020/12/28 03:25:11;;;;;;;1.37;0.80;;;;;;;6.39;89.83;92993.56;5055992;28;20163;-57
2020/12/28 03:27:37;;;;;;;0.80;0.80;;;;;;;6.38;89.78;92986.78;5055332;28;20177;-62
2020/12/28 03:30:03;;;;;;;0.90;0.90;;;;;;;6.44;88.83;92996.09;5055624;28;20565;-61
2020/12/28 03:32:28;;;;;;;1.00;1.00;;;;;;;6.64;89.16;93002.84;5056317;28;20636;-61
2020/12/28 03:34:54;;;;;;;0.67;0.67;;;;;;;6.40;88.89;92992.50;5056060;28;20456;-57
2020/12/28 03:37:19;;;;;;;2.00;0.90;;;;;;;6.42;89.70;93005.25;5056004;28;20222;-61
2020/12/28 03:39:44;;;;;;;1.00;1.00;;;;;;;6.50;89.78;93000.19;5056088;28;20207;-57
2020/12/28 03:42:10;;;;;;;0.97;0.97;;;;;;;6.52;89.79;92997.28;5055814;28;20181;-57
2020/12/28 03:44:35;;;;;;;4.40;0.90;;;;;;;6.58;90.15;92993.53;5055788;28;20277;-60
2020/12/28 03:47:00;;;;;;;0.87;0.87;;;;;;;6.61;88.72;92992.97;5055155;28;20257;-57
2020/12/28 03:49:26;;;;;;;0.80;0.80;;;;;;;6.33;89.61;92978.25;5055592;28;20241;-61
2020/12/28 03:51:51;;;;;;;0.60;0.60;;;;;;;6.60;89.10;92980.97;5055996;28;20180;-61
2020/12/28 03:54:17;;;;;;;0.90;0.90;;;;;;;6.67;88.89;92963.13;5055785;28;20197;-57
2020/12/28 03:56:42;;;;;;;1.07;1.03;;;;;;;6.69;87.63;92956.59;5054904;28;20207;-58
2020/12/28 03:59:07;;;;;;;0.80;0.80;;;;;;;6.56;88.19;92954.69;5055162;28;20541;-58
2020/12/28 04:01:33;;;;;;;0.87;0.83;;;;;;;6.33;90.49;92957.41;5054863;28;20177;-57
2020/12/28 04:03:59;;;;;;;1.37;0.57;;;;;;;6.29;90.78;92965.03;5055153;28;20692;-57
2020/12/28 04:06:24;;;;;;;1.10;1.10;;;;;;;6.24;90.73;92955.47;5055382;28;20256;-61
2020/12/28 04:08:49;;;;;;;0.87;0.80;;;;;;;6.34;90.85;92958.97;5055674;28;20177;-61
2020/12/28 04:11:15;;;;;;;0.60;0.57;;;;;;;6.61;89.41;92956.47;5055123;28;20206;-61
2020/12/28 04:13:40;;;;;;;1.03;1.00;;;;;;;6.71;88.49;92949.25;5055156;28;20243;-63
2020/12/28 04:16:05;;;;;;;0.70;0.70;;;;;;;6.53;88.82;92952.69;5055189;28;20200;-57
2020/12/28 04:18:31;;;;;;;0.80;0.80;;;;;;;6.02;91.42;92944.81;5054892;28;20172;-57
2020/12/28 04:20:56;;;;;;;0.90;0.80;;;;;;;5.94;91.12;92955.88;5055188;28;20193;-61
2020/12/28 04:23:21;;;;;;;0.87;0.70;;;;;;;6.05;90.65;92959.13;5055253;28;20172;-61
2020/12/28 04:25:47;;;;;;;0.70;0.70;;;;;;;5.98;90.73;92949.03;5054646;28;20176;-61
2020/12/28 04:28:12;;;;;;;0.70;0.70;;;;;;;5.86;92.22;92958.31;5054398;28;20693;-61
2020/12/28 04:30:37;;;;;;;1.17;0.50;;;;;;;5.86;91.85;92947.91;5054992;28;20191;-57
2020/12/28 04:33:03;;;;;;;0.60;0.60;;;;;;;6.04;89.70;92952.34;5054686;28;20173;-60
2020/12/28 04:35:28;;;;;;;0.80;0.60;;;;;;;5.95;90.37;92947.00;5053647;28;20557;-58
2020/12/28 04:37:54;;;;;;;0.50;0.40;;;;;;;5.83;91.37;92958.91;5053012;28;20172;-61
2020/12/28 04:40:19;;;;;;;0.40;0.40;;;;;;;5.58;91.55;92962.53;5054094;28;20580;-57
2020/12/28 04:42:45;;;;;;;0.40;0.40;;;;;;;5.79;90.82;92953.44;5054955;28;20172;-61
2020/12/28 04:45:11;;;;;;;0.40;0.40;;;;;;;5.94;89.76;92952.50;5054208;28;20173;-57
2020/12/28 04:47:37;;;;;;;0.60;0.60;;;;;;;6.08;89.57;92946.31;5054442;28;20186;-57
2020/12/28 04:50:04;;;;;;;2.07;0.70;;;;;;;5.95;88.68;92947.00;5054426;28;20443;-61
2020/12/28 04:52:29;;;;;;;0.60;0.40;;;;;;;6.01;89.29;92951.09;5054274;28;20956;-57
2020/12/28 04:54:55;;;;;;;0.57;0.57;;;;;;;6.04;89.25;92936.72;5054610;28;20549;-57
2020/12/28 04:57:20;;;;;;;0.63;0.63;;;;;;;6.03;89.75;92937.78;5054277;28;20198;-61
2020/12/28 04:59:45;;;;;;;0.60;0.60;;;;;;;5.94;89.27;92932.41;5054696;28;20659;-61
2020/12/28 05:02:11;;;;;;;0.40;0.40;;;;;;;5.98;89.15;92938.63;5054486;28;20168;-61
2020/12/28 05:04:36;;;;;;;0.40;0.40;;;;;;;6.13;89.48;92932.41;5054179;28;20526;-61
2020/12/28 05:07:04;;;;;;;0.40;0.40;;;;;;;6.01;89.46;92934.69;5053536;28;20185;-58
2020/12/28 05:09:30;;;;;;;0.53;0.50;;;;;;;6.02;89.67;92931.00;5054158;28;20677;-57
2020/12/28 05:11:58;;;;;;;0.40;0.40;;;;;;;5.94;89.96;92922.00;5054335;28;20402;-58
2020/12/28 05:14:24;;;;;;;0.50;0.50;;;;;;;6.06;88.70;92914.56;5052813;28;20191;-61
2020/12/28 05:17:02;;;;;;;0.60;0.50;;;;;;;5.97;89.84;92916.25;5053741;28;20418;-57
2020/12/28 05:19:28;;;;;;;0.50;0.50;;;;;;;6.07;89.71;92918.69;5053037;28;20315;-61
2020/12/28 05:21:55;;;;;;;1.40;0.63;;;;;;;5.96;90.18;92922.50;5054094;28;20848;-57
2020/12/28 05:24:20;;;;;;;0.60;0.50;;;;;;;5.77;91.45;92910.50;5054150;28;20551;-57
2020/12/28 05:26:46;;;;;;;1.93;0.70;;;;;;;5.84;90.92;92914.34;5053709;28;20424;-61
2020/12/28 05:29:20;;;;;;;0.60;0.60;;;;;;;5.74;91.59;92911.81;5053959;28;20558;-57
2020/12/28 05:31:46;;;;;;;1.40;0.70;;;;;;;5.60;92.88;92915.44;5053957;28;20896;-58
2020/12/28 05:34:14;;;;;;;1.00;0.70;;;;;;;5.56;94.24;92914.44;5053441;28;20465;-57
2020/12/28 05:36:39;;;;;;;0.40;0.40;;;;;;;5.86;92.21;92922.66;5033530;28;20792;-62
2020/12/28 05:39:06;;;;;;;11.83;1.20;;;;;;;5.83;92.36;92928.44;5036196;28;20443;-57
2020/12/28 05:41:31;;;;;;;0.50;0.50;;;;;;;5.91;92.02;92927.00;5053446;28;20194;-61
2020/12/28 05:44:07;;;;;;;0.70;0.70;;;;;;;5.92;91.97;92923.34;5052416;28;20410;-57
2020/12/28 05:46:33;;;;;;;0.60;0.60;;;;;;;6.05;91.85;92914.84;5053511;28;20633;-61
2020/12/28 05:49:00;;;;;;;0.70;0.70;;;;;;;5.73;94.08;92928.50;5052762;28;20429;-61
2020/12/28 05:51:26;;;;;;;0.63;0.63;;;;;;;5.86;92.72;92927.06;5053239;28;20203;-57
2020/12/28 05:53:53;;;;;;;0.70;0.70;;;;;;;5.49;95.61;92919.97;5053577;28;20441;-61
2020/12/28 05:56:19;;;;;;;1.27;0.80;;;;;;;5.45;95.37;92921.59;5052607;28;20269;-60
2020/12/28 05:58:46;;;;;;;3.00;0.90;;;;;;;5.28;97.03;92926.47;5053390;28;20442;-57
2020/12/28 06:01:17;;;;;;;1.57;0.80;;;;;;;5.54;96.21;92925.13;5053479;28;20195;-61
2020/12/28 06:03:45;;;;;;;1.20;1.20;;;;;;;5.53;96.29;92928.78;5053330;28;20422;-57
2020/12/28 06:06:11;;;;;;;0.67;0.67;;;;;;;5.51;96.43;92922.31;5053501;28;20411;-61
2020/12/28 06:08:42;;;;;;;0.70;0.60;;;;;;;5.73;94.85;92912.09;5052947;28;20408;-56
2020/12/28 06:11:07;;;;;;;0.90;0.60;;;;;;;5.76;94.14;92932.41;5053042;28;20453;-61
2020/12/28 06:13:32;;;;;;;0.87;0.60;;;;;;;5.41;95.30;92928.41;5051430;28;20434;-56
2020/12/28 06:16:02;;;;;;;0.73;0.50;;;;;;;5.21;97.82;92923.44;5052755;28;20209;-61
2020/12/28 06:18:28;;;;;;;0.67;0.67;;;;;;;5.47;96.14;92926.50;5052968;28;20182;-61
2020/12/28 06:20:54;;;;;;;0.60;0.60;;;;;;;5.54;96.52;92932.16;5053176;28;20790;-61
2020/12/28 06:23:27;;;;;;;0.67;0.67;;;;;;;5.36;96.98;92928.47;5053123;28;20492;-57
2020/12/28 06:25:56;;;;;;;0.40;0.40;;;;;;;5.30;97.75;92931.38;5052018;28;20172;-61
2020/12/28 06:28:27;;;;;;;1.07;0.50;;;;;;;5.00;98.88;92935.88;5052831;28;20414;-61
2020/12/28 06:31:06;;;;;;;0.47;0.47;;;;;;;5.38;96.50;92934.16;5053069;28;20438;-57
2020/12/28 06:33:32;;;;;;;0.90;0.90;;;;;;;5.43;96.56;92928.91;5053187;28;20916;-58
2020/12/28 06:35:58;;;;;;;1.40;0.60;;;;;;;5.44;96.71;92935.66;5053230;28;20778;-61
2020/12/28 06:38:25;;;;;;;0.60;0.60;;;;;;;5.32;97.60;92937.09;5051614;28;20425;-57
2020/12/28 06:40:51;;;;;;;0.90;0.70;;;;;;;5.62;95.80;92927.09;5052929;28;20672;-57
2020/12/28 06:43:18;;;;;;;1.13;0.70;;;;;;;5.90;95.62;92936.66;5052662;28;20422;-61
2020/12/28 06:45:46;;;;;;;1.23;0.60;;;;;;;5.93;93.29;92930.88;5053209;28;20504;-57
2020/12/28 06:48:23;;;;;;;0.60;0.60;;;;;;;5.70;94.41;92933.50;5052574;28;20779;-57
2020/12/28 06:50:50;;;;;;;0.80;0.80;;;;;;;5.28;97.27;92925.69;5053031;28;20426;-57
2020/12/28 06:53:25;;;;;;;0.67;0.67;;;;;;;5.12;97.59;92930.28;5052746;28;20433;-61
2020/12/28 06:55:51;;;;;;;0.60;0.60;;;;;;;5.23;97.06;92926.53;5052997;28;20484;-57
2020/12/28 06:58:17;;;;;;;0.57;0.57;;;;;;;5.16;97.59;92928.69;5052105;28;20427;-61
2020/12/28 07:00:43;;;;;;;0.80;0.80;;;;;;;4.93;97.92;92934.63;5052676;28;20486;-61
2020/12/28 07:03:16;;;;;;;0.90;0.80;;;;;;;4.90;98.16;92925.56;5052780;28;20267;-61
2020/12/28 07:05:43;;;;;;;1.23;0.60;;;;;;;4.90;99.34;92925.56;5052543;28;20179;-61
2020/12/28 07:08:08;;;;;;;0.60;0.60;;;;;;;4.98;98.94;92930.16;5052234;28;20443;-57
2020/12/28 07:10:34;;;;;;;0.80;0.70;;;;;;;4.89;99.11;92931.81;5052649;28;20947;-61
2020/12/28 07:13:05;;;;;;;1.47;0.73;;;;;;;5.23;97.73;92934.34;5052314;28;20269;-62
2020/12/28 07:15:30;;;;;;;0.80;0.50;;;;;;;5.30;96.62;92939.19;5052413;28;20664;-57
2020/12/28 07:18:03;;;;;;;0.60;0.60;;;;;;;5.01;98.42;92939.25;5052152;28;20435;-57
2020/12/28 07:20:28;;;;;;;0.60;0.60;;;;;;;4.97;97.95;92933.81;5052872;28;20191;-61
2020/12/28 07:22:54;;;;;;;0.60;0.60;;;;;;;4.74;99.32;92933.78;5052656;28;20425;-57
2020/12/28 07:25:19;;;;;;;0.67;0.50;;;;;;;4.84;99.23;92924.06;5050983;28;20175;-59
2020/12/28 07:27:44;;;;;;;0.67;0.67;;;;;;;5.04;98.05;92920.47;5052250;28;20202;-61
2020/12/28 07:30:13;;;;;;;1.80;0.80;;;;;;;4.95;97.90;92925.53;5052257;28;20207;-57
2020/12/28 07:32:40;;;;;;;1.37;0.60;;;;;;;4.95;97.89;92925.53;5052467;28;20253;-57
2020/12/28 07:35:06;;;;;;;1.23;0.60;;;;;;;5.20;97.24;92925.25;5052368;28;20526;-57
2020/12/28 07:37:37;;;;;;;1.10;0.67;;;;;;;5.13;97.21;92924.03;5054423;28;20448;-58
2020/12/28 07:40:04;;;;;;;0.77;0.73;;;;;;;5.19;96.82;92920.31;5055590;28;20815;-61
2020/12/28 07:42:31;;;;;;;0.90;0.63;;;;;;;5.16;96.90;92915.69;5055218;28;20421;-61
2020/12/28 07:45:15;;;;;;;0.90;0.90;;;;;;;5.17;97.89;92918.00;5055558;28;20427;-57
2020/12/28 07:47:52;;;;;;;0.80;0.80;;;;;;;5.31;97.02;92906.94;5055541;28;20421;-61
2020/12/28 07:50:18;;;;;;;4.10;1.10;;;;;;;5.79;95.23;92903.97;5055831;28;20453;-61
2020/12/28 07:53:09;;;;;;;0.80;0.80;;;;;;;5.94;93.33;92908.22;5055477;28;20504;-61
2020/12/28 07:55:41;;;;;;;4.93;0.73;;;;;;;5.69;93.84;92905.94;5055654;28;20449;-57
2020/12/28 07:58:13;;;;;;;0.70;0.70;;;;;;;5.81;93.06;92911.50;5055214;28;20451;-57
2020/12/28 08:00:50;;;;;;;1.40;0.83;;;;;;;5.55;94.61;92897.25;5055210;28;20448;-59
2020/12/28 08:03:45;;;;;;;1.10;0.60;;;;;;;5.51;94.77;92893.69;5055671;28;20412;-57
2020/12/28 08:06:10;;;;;;;0.90;0.90;;;;;;;5.37;95.95;92901.38;5055624;28;20406;-61
2020/12/28 08:08:36;;;;;;;0.73;0.73;;;;;;;5.59;94.96;92893.81;5054845;28;20433;-61
2020/12/28 08:11:04;;;;;;;1.17;1.07;;;;;;;5.67;94.75;92895.78;5055526;28;20438;-61
2020/12/28 08:13:36;;;;;;;0.83;0.83;;;;;;;5.70;93.34;92894.44;5055182;28;20179;-60
2020/12/28 08:16:10;;;;;;;0.73;0.73;;;;;;;5.82;92.97;92886.97;5055124;28;20504;-57
2020/12/28 08:18:45;;;;;;;1.10;0.70;;;;;;;5.66;93.09;92899.44;5054586;28;20457;-57
2020/12/28 08:21:10;;;;;;;2.47;0.70;;;;;;;5.44;94.92;92895.81;5054870;28;20476;-56
2020/12/28 08:23:35;;;;;;;1.13;0.80;;;;;;;5.28;95.22;92890.03;5049307;28;20481;-61
2020/12/28 08:26:01;;;;;;;0.87;0.70;;;;;;;5.46;95.52;92902.31;5035408;28;20182;-61
2020/12/28 08:28:26;;;;;;;1.30;1.20;;;;;;;5.19;96.21;92895.09;5040487;28;20179;-58
2020/12/28 08:30:52;;;;;;;1.40;0.70;;;;;;;5.00;96.62;92902.06;5055043;28;20198;-59
2020/12/28 08:33:18;;;;;;;0.70;0.70;;;;;;;5.09;96.87;92889.22;5054290;28;20566;-58
2020/12/28 08:35:51;;;;;;;0.97;0.97;;;;;;;4.98;97.72;92908.59;5054807;28;20566;-58
2020/12/28 08:38:18;;;;;;;1.20;0.80;;;;;;;4.84;98.76;92910.28;5054466;28;20423;-58
2020/12/28 08:40:54;;;;;;;2.13;1.10;;;;;;;4.82;99.43;92904.59;5054707;28;20814;-62
2020/12/28 08:43:19;;;;;;;1.00;1.00;;;;;;;4.84;99.20;92908.47;5055207;28;20409;-59
2020/12/28 08:45:44;;;;;;;0.60;0.60;;;;;;;4.90;99.04;92899.56;5054862;28;20740;-59
2020/12/28 08:48:10;;;;;;;0.83;0.60;;;;;;;5.00;98.77;92883.84;5053734;28;20193;-58
2020/12/28 08:50:36;;;;;;;0.83;0.70;;;;;;;4.83;100.00;92890.53;5054853;28;20208;-62
2020/12/28 08:53:02;;;;;;;0.70;0.70;;;;;;;4.88;99.93;92887.88;5054820;28;20170;-63
2020/12/28 08:55:28;;;;;;;0.57;0.57;;;;;;;5.20;99.47;92886.22;5054549;28;20451;-61
2020/12/28 08:57:56;;;;;;;1.63;0.80;;;;;;;5.39;98.01;92894.06;5054443;28;20842;-61
2020/12/28 09:00:23;;;;;;;3.27;0.93;;;;;;;5.50;97.35;92886.91;5054571;28;20278;-60
2020/12/28 09:02:54;;;;;;;2.70;0.90;;;;;;;5.44;96.86;92878.38;5054016;28;20421;-61
2020/12/28 09:05:20;;;;;;;0.80;0.80;;;;;;;5.21;97.25;92893.00;5053835;28;20589;-61
2020/12/28 09:07:46;;;;;;;0.60;0.60;;;;;;;5.25;97.52;92898.41;5053970;28;20406;-61
2020/12/28 09:10:12;;;;;;;1.00;0.87;;;;;;;5.32;98.19;92917.06;5054362;28;20985;-62
2020/12/28 09:12:38;;;;;;;1.03;0.93;;;;;;;4.98;99.88;92916.41;5054326;28;20401;-60
2020/12/28 09:15:03;;;;;;;1.10;0.77;;;;;;;5.27;99.51;92921.53;5053765;28;20813;-57
2020/12/28 09:17:29;;;;;;;1.33;1.20;;;;;;;5.21;100.00;92924.22;5053601;28;20183;-66
2020/12/28 09:19:54;;;;;;;1.60;1.20;;;;;;;5.37;99.83;92924.03;5050296;28;20203;-57
2020/12/28 09:22:19;;;;;;;1.07;1.00;;;;;;;5.56;97.85;92923.00;5050028;28;20250;-59
2020/12/28 09:24:45;;;;;;;3.40;1.70;;;;;;;5.41;98.17;92925.03;5050509;28;20359;-55
2020/12/28 09:27:10;;;;;;;1.43;0.90;;;;;;;5.42;99.57;92923.97;5050233;28;20248;-54
2020/12/28 09:29:35;;;;;;;1.87;0.90;;;;;;;5.56;98.30;92930.06;5049998;28;20205;-58
2020/12/28 09:32:01;;;;;;;1.10;1.00;;;;;;;5.53;98.38;92922.78;5049268;28;20690;-59
2020/12/28 09:34:26;;;;;;;0.90;0.90;;;;;;;5.61;97.51;92909.94;5052290;28;20198;-53
2020/12/28 09:37:05;;;;;;;1.73;0.80;;;;;;;5.86;98.32;92904.41;5052980;28;20629;-60
2020/12/28 09:39:31;;;;;;;1.03;0.73;;;;;;;5.75;97.23;92900.38;5053796;28;20224;-60
2020/12/28 09:41:57;;;;;;;1.20;1.10;;;;;;;5.65;98.28;92897.13;5049167;28;20522;-53
2020/12/28 09:44:23;;;;;;;2.17;1.13;;;;;;;6.02;97.25;92886.72;5053578;28;20398;-59
2020/12/28 09:46:53;;;;;;;1.43;0.97;;;;;;;5.95;95.45;92887.09;5053089;28;20167;-54
2020/12/28 09:49:20;;;;;;;1.00;1.00;;;;;;;5.66;97.13;92896.84;5053055;28;20452;-55
2020/12/28 09:51:47;;;;;;;2.07;1.17;;;;;;;5.51;99.48;92897.03;5053474;28;20407;-63
2020/12/28 09:54:13;;;;;;;1.53;1.30;;;;;;;5.91;96.87;92882.72;5052186;28;20456;-63
2020/12/28 09:56:38;;;;;;;1.60;1.20;;;;;;;5.80;96.27;92887.28;5052569;28;20429;-56
2020/12/28 09:59:04;;;;;;;1.10;1.00;;;;;;;5.44;98.41;92894.00;5052913;28;20171;-63
2020/12/28 10:01:29;;;;;;;2.03;1.60;;;;;;;5.57;99.10;92890.72;5053634;28;20275;-63
2020/12/28 10:03:54;;;;;;;1.33;1.23;;;;;;;6.04;97.59;92895.03;5052438;28;20171;-63
2020/12/28 10:06:33;;;;;;;1.40;1.30;;;;;;;6.34;95.68;92907.59;5052457;28;20202;-59
2020/12/28 10:08:59;;;;;;;1.43;1.10;;;;;;;6.11;96.55;92903.25;5052998;28;20225;-63
2020/12/28 10:11:25;;;;;;;1.37;1.27;;;;;;;6.41;95.50;92902.03;5053400;28;20411;-56
2020/12/28 10:13:50;;;;;;;1.80;1.70;;;;;;;6.36;94.22;92894.31;5053260;28;20279;-63
2020/12/28 10:16:26;;;;;;;2.20;2.00;;;;;;;6.30;93.85;92890.22;5053153;28;20468;-60
2020/12/28 10:18:53;;;;;;;2.63;2.43;;;;;;;6.35;95.01;92884.91;5052908;28;20228;-64
2020/12/28 10:21:19;;;;;;;2.37;2.27;;;;;;;6.38;92.27;92876.53;5053202;28;20491;-63
2020/12/28 10:23:45;;;;;;;2.80;2.40;;;;;;;5.97;94.10;92884.97;5053202;28;20402;-55
2020/12/28 10:26:21;;;;;;;2.43;2.23;;;;;;;5.78;95.42;92880.81;5053291;28;20984;-55
2020/12/28 10:28:48;;;;;;;3.50;3.20;;;;;;;6.09;94.39;92884.53;5053018;28;20181;-63
2020/12/28 10:31:15;;;;;;;2.80;2.60;;;;;;;5.78;95.20;92881.56;5052676;28;20434;-63
2020/12/28 10:33:42;;;;;;;2.83;2.63;;;;;;;5.68;96.57;92879.13;5052522;28;20936;-55
2020/12/28 10:36:14;;;;;;;2.73;2.63;;;;;;;5.89;96.19;92872.59;5052824;28;20726;-55
2020/12/28 10:38:40;;;;;;;3.27;2.90;;;;;;;6.14;94.04;92874.81;5052292;28;20421;-55
2020/12/28 10:41:05;;;;;;;3.27;3.00;;;;;;;6.01;93.51;92874.75;5052619;28;20452;-55
2020/12/28 10:43:31;;;;;;;3.03;2.77;;;;;;;5.73;94.22;92873.81;5052872;28;20406;-56
2020/12/28 10:45:56;;;;;;;3.40;2.83;;;;;;;6.04;95.14;92859.34;5052930;28;20175;-64
2020/12/28 10:48:21;;;;;;;3.00;2.70;;;;;;;6.30;91.79;92875.34;5052661;28;20189;-56
2020/12/28 10:50:47;;;;;;;2.20;2.10;;;;;;;6.18;93.31;92869.78;5052342;28;20202;-63
2020/12/28 10:53:12;;;;;;;2.90;2.70;;;;;;;6.17;92.86;92865.66;5052665;28;20187;-55
2020/12/28 10:55:38;;;;;;;2.67;2.47;;;;;;;6.19;91.58;92866.16;5052958;28;20195;-55
2020/12/28 10:58:03;;;;;;;3.47;3.17;;;;;;;5.91;93.56;92864.47;5052243;28;20536;-63
2020/12/28 11:00:28;;;;;;;2.57;2.33;;;;;;;6.23;92.59;92862.69;5052739;28;20237;-55
2020/12/28 11:02:54;;;;;;;3.27;2.87;;;;;;;5.99;93.42;92858.63;5053016;28;20530;-63
2020/12/28 11:05:19;;;;;;;3.20;3.00;;;;;;;5.97;94.25;92858.16;5052545;28;20263;-64
2020/12/28 11:07:45;;;;;;;2.97;2.37;;;;;;;6.53;91.35;92853.59;5052555;28;20214;-55
2020/12/28 11:10:10;;;;;;;2.60;2.40;;;;;;;6.39;90.80;92863.22;5052671;28;20553;-55
2020/12/28 11:12:35;;;;;;;2.93;2.73;;;;;;;6.29;91.77;92860.75;5055259;28;20182;-64
2020/12/28 11:15:01;;;;;;;2.30;2.20;;;;;;;6.03;93.78;92851.81;5056139;28;20235;-55
2020/12/28 11:17:26;;;;;;;3.20;2.90;;;;;;;5.85;94.24;92847.41;5055380;28;20258;-63
2020/12/28 11:19:52;;;;;;;2.17;2.07;;;;;;;6.29;93.28;92831.34;5056448;28;20238;-64
2020/12/28 11:22:17;;;;;;;1.90;1.80;;;;;;;6.37;92.26;92825.44;5056599;28;20224;-64
2020/12/28 11:24:42;;;;;;;1.70;1.60;;;;;;;6.47;91.98;92820.06;5055963;28;20170;-55
2020/12/28 11:27:08;;;;;;;1.90;1.80;;;;;;;6.35;92.19;92810.09;5056332;28;20187;-55
2020/12/28 11:29:33;;;;;;;1.90;1.80;;;;;;;6.71;91.02;92800.59;5054879;28;20252;-63
2020/12/28 11:31:58;;;;;;;2.70;2.00;;;;;;;7.00;89.77;92801.06;5055448;28;20181;-65
2020/12/28 11:34:24;;;;;;;2.37;2.23;;;;;;;6.88;87.86;92797.41;5056329;28;20207;-55
2020/12/28 11:36:49;;;;;;;2.93;2.73;;;;;;;6.57;90.36;92788.59;5054820;28;20178;-56
2020/12/28 11:39:15;;;;;;;2.63;2.20;;;;;;;6.54;89.95;92774.28;5054324;28;20213;-63